Orbital elements of COSMOS 970 DEB
| Launched | 20 December 1977 |
| Flight ended | – |
| Launch site | Tyuratam Missile and Space Center, Kazakhstan (Also known as Baikonur Cosmodrome) |
| Owner | Commonwealth of Independent States (former USSR) |
| NORAD ID | 64998 |
| Date fetched |
Epoch osculation |
Inc. [°] |
Ecc. | RA asc node [hr] |
Arg Peri. [°] |
Mean anom [°] |
Mean motion [rev/day] |
Abs. mag |
| Date fetched |
Epoch osculation |
Inc. [°] |
Ecc. | RA asc node [hr] |
Arg Peri. [°] |
Mean anom [°] |
Mean motion [rev/day] |
Abs. mag |
| 2026 May 03 17:57 | 2026 Apr 29 00:28:39 | 65.9815 | 0.01014 | 8.0642 | 49.1913 | 311.7893 | 13.71878 | – |
| 2026 May 02 17:57 | 2026 Apr 29 00:28:39 | 65.9815 | 0.01014 | 8.0642 | 49.1913 | 311.7893 | 13.71878 | – |
| 2026 May 01 17:56 | 2026 Apr 29 00:28:39 | 65.9815 | 0.01014 | 8.0642 | 49.1913 | 311.7893 | 13.71878 | – |
| 2026 Apr 30 17:56 | 2026 Apr 29 00:28:39 | 65.9815 | 0.01014 | 8.0642 | 49.1913 | 311.7893 | 13.71878 | – |
| 2026 Apr 29 17:57 | 2026 Apr 19 20:01:35 | 65.9820 | 0.01009 | 9.5605 | 54.3001 | 311.7893 | 13.71878 | – |
| 2026 Apr 28 17:56 | 2026 Apr 19 20:01:35 | 65.9820 | 0.01009 | 9.5605 | 54.3001 | 311.7893 | 13.71878 | – |
| 2026 Apr 27 17:58 | 2026 Apr 19 20:01:35 | 65.9820 | 0.01009 | 9.5605 | 54.3001 | 311.7893 | 13.71878 | – |
| 2026 Apr 26 17:58 | 2026 Apr 19 20:01:35 | 65.9820 | 0.01009 | 9.5605 | 54.3001 | 311.7893 | 13.71878 | – |
| 2026 Apr 25 17:58 | 2026 Apr 19 20:01:35 | 65.9820 | 0.01009 | 9.5605 | 54.3001 | 311.7893 | 13.71878 | – |
| 2026 Apr 24 17:59 | 2026 Apr 19 20:01:35 | 65.9820 | 0.01009 | 9.5605 | 54.3001 | 311.7893 | 13.71878 | – |
| 2026 Apr 23 17:57 | 2026 Apr 18 12:32:00 | 65.9825 | 0.01009 | 9.7743 | 55.0567 | 311.7893 | 13.71878 | – |
| 2026 Apr 22 17:57 | 2026 Apr 18 12:32:00 | 65.9825 | 0.01009 | 9.7743 | 55.0567 | 311.7893 | 13.71878 | – |
| 2026 Apr 21 17:57 | 2026 Apr 18 12:32:00 | 65.9825 | 0.01009 | 9.7743 | 55.0567 | 311.7893 | 13.71878 | – |
| 2026 Apr 20 17:57 | 2026 Apr 18 12:32:00 | 65.9825 | 0.01009 | 9.7743 | 55.0567 | 311.7893 | 13.71878 | – |
| 2026 Apr 19 17:58 | 2026 Apr 18 12:32:00 | 65.9825 | 0.01009 | 9.7743 | 55.0567 | 311.7893 | 13.71878 | – |
| 2026 Apr 18 17:56 | 2026 Apr 11 10:49:12 | 65.9825 | 0.01009 | 10.9261 | 59.1483 | 311.7893 | 13.71878 | – |
| 2026 Apr 16 17:57 | 2026 Apr 11 10:49:12 | 65.9825 | 0.01009 | 10.9261 | 59.1483 | 311.7893 | 13.71878 | – |
| 2026 Apr 14 17:57 | 2026 Apr 11 10:49:12 | 65.9825 | 0.01009 | 10.9261 | 59.1483 | 311.7893 | 13.71878 | – |
| 2026 Apr 13 17:57 | 2026 Apr 11 10:49:12 | 65.9825 | 0.01009 | 10.9261 | 59.1483 | 311.7893 | 13.71878 | – |
| 2026 Apr 12 17:57 | 2026 Apr 04 12:36:18 | 65.9839 | 0.01005 | 12.0543 | 63.0553 | 311.7893 | 13.71878 | – |
| 2026 Apr 11 17:57 | 2026 Apr 04 12:36:18 | 65.9839 | 0.01005 | 12.0543 | 63.0553 | 311.7893 | 13.71878 | – |
| 2026 Apr 10 17:58 | 2026 Apr 04 12:36:18 | 65.9839 | 0.01005 | 12.0543 | 63.0553 | 311.7893 | 13.71878 | – |
| 2026 Apr 09 18:01 | 2026 Apr 04 12:36:18 | 65.9839 | 0.01005 | 12.0543 | 63.0553 | 311.7893 | 13.71878 | – |
| 2026 Apr 08 17:57 | 2026 Apr 04 12:36:18 | 65.9839 | 0.01005 | 12.0543 | 63.0553 | 311.7893 | 13.71878 | – |
| 2026 Apr 07 17:57 | 2026 Mar 30 06:37:52 | 65.9836 | 0.01007 | 12.9092 | 66.0928 | 311.7893 | 13.71878 | – |
| 2026 Apr 06 17:57 | 2026 Mar 30 06:37:52 | 65.9836 | 0.01007 | 12.9092 | 66.0928 | 311.7893 | 13.71878 | – |